createdAt,value
2023-04-06T00:02:55.418Z,98590.48
2023-04-06T00:05:58.522Z,98586.75
2023-04-06T00:09:01.700Z,98588.91
2023-04-06T00:12:04.885Z,98588.38
2023-04-06T00:15:08.458Z,98582.79
2023-04-06T00:18:11.760Z,98584.26
2023-04-06T00:21:15.683Z,98579.98
2023-04-06T00:24:18.727Z,98580.65
2023-04-06T00:27:21.812Z,98581.23
2023-04-06T00:30:24.906Z,98576.09
2023-04-06T00:33:28.137Z,98574.58
2023-04-06T00:36:31.375Z,98571.08
2023-04-06T00:39:34.361Z,98572.61
2023-04-06T00:42:37.773Z,98571.43
2023-04-06T00:45:42.270Z,98571.30
2023-04-06T00:48:45.488Z,98567.32
2023-04-06T00:51:48.602Z,98570.02
2023-04-06T00:54:51.904Z,98568.46
2023-04-06T00:57:59.506Z,98566.45
2023-04-06T01:01:03.223Z,98567.48
2023-04-06T01:04:06.339Z,98567.30
2023-04-06T01:07:14.531Z,98565.20
2023-04-06T01:10:27.606Z,98566.48
2023-04-06T01:13:47.072Z,98565.63
2023-04-06T01:17:05.277Z,98564.30
2023-04-06T01:20:10.906Z,98560.38
2023-04-06T01:23:14.659Z,98563.00
2023-04-06T01:26:22.214Z,98566.11
2023-04-06T01:29:27.482Z,98560.55
2023-04-06T01:32:31.253Z,98562.54
2023-04-06T01:35:34.562Z,98562.44
2023-04-06T01:38:49.646Z,98557.98
2023-04-06T01:41:53.326Z,98558.23
2023-04-06T01:44:57.368Z,98556.49
2023-04-06T01:48:00.862Z,98556.85
2023-04-06T01:51:05.069Z,98553.98
2023-04-06T01:54:10.367Z,98556.09
2023-04-06T01:57:30.655Z,98555.71
2023-04-06T02:00:42.620Z,98558.27
2023-04-06T02:03:46.321Z,98557.05
2023-04-06T02:06:49.572Z,98551.47
2023-04-06T02:09:56.583Z,98551.34
2023-04-06T02:13:04.596Z,98549.86
2023-04-06T02:16:08.033Z,98550.95
2023-04-06T02:19:11.062Z,98555.63
2023-04-06T02:22:14.108Z,98550.75
2023-04-06T02:25:17.282Z,98547.45
2023-04-06T02:28:20.399Z,98546.70
2023-04-06T02:31:23.560Z,98545.13
2023-04-06T02:34:27.070Z,98545.08
2023-04-06T02:37:30.447Z,98543.67
2023-04-06T02:40:34.935Z,98543.09
2023-04-06T02:43:45.408Z,98541.18
2023-04-06T02:46:53.855Z,98539.49
2023-04-06T02:49:57.966Z,98541.94
2023-04-06T02:53:01.189Z,98546.17
2023-04-06T02:56:04.457Z,98544.83
2023-04-06T02:59:15.647Z,98547.02
2023-04-06T03:02:25.195Z,98549.17
2023-04-06T03:05:29.895Z,98550.79
2023-04-06T03:08:33.011Z,98551.27
2023-04-06T03:11:36.188Z,98549.41
2023-04-06T03:14:39.254Z,98548.58
2023-04-06T03:17:42.599Z,98548.14
2023-04-06T03:20:50.475Z,98549.66
2023-04-06T03:23:54.211Z,98551.20
2023-04-06T03:26:57.555Z,98554.36
2023-04-06T03:30:01.279Z,98558.12
2023-04-06T03:33:08.099Z,98557.77
2023-04-06T03:36:15.787Z,98559.92
2023-04-06T03:39:19.815Z,98559.31
2023-04-06T03:42:22.813Z,98562.59
2023-04-06T03:45:29.360Z,98558.69
2023-04-06T03:48:32.511Z,98561.73
2023-04-06T03:51:38.981Z,98558.38
2023-04-06T03:54:42.094Z,98563.67
2023-04-06T03:57:47.282Z,98562.09
2023-04-06T04:00:50.501Z,98566.13
2023-04-06T04:03:54.495Z,98567.06
2023-04-06T04:06:57.602Z,98565.35
2023-04-06T04:10:00.741Z,98563.52
2023-04-06T04:13:03.921Z,98562.20
2023-04-06T04:16:07.515Z,98567.95
2023-04-06T04:19:12.214Z,98567.82
2023-04-06T04:22:15.303Z,98571.63
2023-04-06T04:25:18.629Z,98571.35
2023-04-06T04:28:23.827Z,98570.87
2023-04-06T04:31:29.230Z,98566.29
2023-04-06T04:34:34.622Z,98564.63
2023-04-06T04:37:37.779Z,98565.58
2023-04-06T04:40:41.014Z,98564.66
2023-04-06T04:43:45.802Z,98563.43
2023-04-06T04:46:49.702Z,98563.77
2023-04-06T04:49:53.901Z,98569.06
2023-04-06T04:52:59.050Z,98567.40
2023-04-06T04:56:03.715Z,98568.42
2023-04-06T04:59:07.451Z,98571.23
2023-04-06T05:02:12.792Z,98570.54
2023-04-06T05:05:23.429Z,98566.56
2023-04-06T05:08:26.945Z,98564.19
2023-04-06T05:11:30.163Z,98562.15
2023-04-06T05:14:36.132Z,98559.25
2023-04-06T05:17:40.131Z,98560.72
2023-04-06T05:20:44.284Z,98565.20
2023-04-06T05:23:48.265Z,98566.63
2023-04-06T05:26:51.564Z,98563.77
2023-04-06T05:29:58.246Z,98561.08
2023-04-06T05:33:02.728Z,98564.67
2023-04-06T05:36:14.843Z,98563.38
2023-04-06T05:39:19.996Z,98556.27
2023-04-06T05:42:28.091Z,98554.65
2023-04-06T05:45:36.023Z,98554.54
2023-04-06T05:48:41.719Z,98555.81
2023-04-06T05:51:45.817Z,98556.42
2023-04-06T05:54:50.029Z,98552.82
2023-04-06T05:57:53.266Z,98555.41
2023-04-06T06:01:04.668Z,98555.04
2023-04-06T06:04:14.270Z,98553.44
2023-04-06T06:07:17.786Z,98547.77
2023-04-06T06:10:27.034Z,98550.26
2023-04-06T06:13:30.317Z,98550.42
2023-04-06T06:16:34.000Z,98547.48
2023-04-06T06:19:37.479Z,98545.86
2023-04-06T06:22:42.476Z,98543.64
2023-04-06T06:25:48.777Z,98544.18
2023-04-06T06:28:52.181Z,98544.39
2023-04-06T06:31:55.425Z,98547.98
2023-04-06T06:34:59.585Z,98548.42
2023-04-06T06:38:04.636Z,98550.56
2023-04-06T06:41:08.847Z,98547.13
2023-04-06T06:44:12.558Z,98546.59
2023-04-06T06:47:16.538Z,98551.64
2023-04-06T06:50:20.941Z,98551.61
2023-04-06T06:53:25.057Z,98552.60
2023-04-06T06:56:29.019Z,98548.66
2023-04-06T06:59:32.619Z,98551.80
2023-04-06T07:02:39.417Z,98551.23
2023-04-06T07:05:54.293Z,98553.55
2023-04-06T07:08:58.216Z,98555.59
2023-04-06T07:12:02.022Z,98552.48
2023-04-06T07:15:06.158Z,98552.35
2023-04-06T07:18:10.499Z,98553.35
2023-04-06T07:21:14.034Z,98555.80
2023-04-06T07:24:17.181Z,98556.55
2023-04-06T07:27:20.729Z,98556.42
2023-04-06T07:30:26.123Z,98557.86
2023-04-06T07:33:31.024Z,98558.14
2023-04-06T07:36:34.675Z,98559.33
2023-04-06T07:39:38.019Z,98561.39
2023-04-06T07:42:41.426Z,98560.77
2023-04-06T07:45:45.069Z,98559.79
2023-04-06T07:48:48.373Z,98558.20
2023-04-06T07:51:51.450Z,98551.70
2023-04-06T07:54:54.597Z,98553.66
2023-04-06T07:57:57.698Z,98549.64
2023-04-06T08:01:00.794Z,98550.44
2023-04-06T08:04:04.069Z,98552.81
2023-04-06T08:07:07.877Z,98551.84
2023-04-06T08:10:11.489Z,98556.33
2023-04-06T08:13:17.371Z,98554.17
2023-04-06T08:16:20.873Z,98554.92
2023-04-06T08:19:24.110Z,98547.72
2023-04-06T08:22:27.547Z,98546.80
2023-04-06T08:25:30.786Z,98547.55
2023-04-06T08:28:35.463Z,98545.94
2023-04-06T08:31:38.716Z,98545.91
2023-04-06T08:34:42.085Z,98542.43
2023-04-06T08:37:45.448Z,98543.14
2023-04-06T08:40:50.876Z,98542.88
2023-04-06T08:43:57.399Z,98537.32
2023-04-06T08:47:01.531Z,98534.59
2023-04-06T08:50:05.804Z,98535.14
2023-04-06T08:53:09.404Z,98536.27
2023-04-06T08:56:13.248Z,98539.30
2023-04-06T08:59:16.883Z,98538.41
2023-04-06T09:02:22.074Z,98534.15
2023-04-06T09:05:30.771Z,98534.08
2023-04-06T09:08:43.126Z,98537.38
2023-04-06T09:11:53.238Z,98532.52
2023-04-06T09:14:58.210Z,98530.50
2023-04-06T09:18:06.763Z,98525.08
2023-04-06T09:21:14.055Z,98527.39
2023-04-06T09:24:23.950Z,98528.34
2023-04-06T09:27:36.029Z,98521.98
2023-04-06T09:30:49.420Z,98516.75
2023-04-06T09:33:53.707Z,98511.09
2023-04-06T09:36:56.967Z,98509.88
2023-04-06T09:40:06.480Z,98502.69
2023-04-06T09:43:10.985Z,98503.59
2023-04-06T09:46:15.333Z,98506.11
2023-04-06T09:49:24.227Z,98494.29
2023-04-06T09:52:32.231Z,98489.31
2023-04-06T09:55:43.171Z,98489.18
2023-04-06T09:58:51.377Z,98488.00
2023-04-06T10:01:59.472Z,98485.94
2023-04-06T10:05:17.695Z,98487.41
2023-04-06T10:08:27.297Z,98482.24
2023-04-06T10:11:31.357Z,98484.89
2023-04-06T10:14:38.768Z,98474.02
2023-04-06T10:17:42.332Z,98469.85
2023-04-06T10:20:57.179Z,98474.55
2023-04-06T10:24:03.278Z,98468.83
2023-04-06T10:27:08.096Z,98466.87
2023-04-06T10:30:11.758Z,98461.77
2023-04-06T10:33:20.066Z,98461.89
2023-04-06T10:36:26.614Z,98449.36
2023-04-06T10:39:29.815Z,98444.17
2023-04-06T10:42:42.213Z,98446.76
2023-04-06T10:45:45.373Z,98445.52
2023-04-06T10:48:48.716Z,98446.73
2023-04-06T10:51:55.966Z,98447.30
2023-04-06T10:54:59.563Z,98442.98
2023-04-06T10:58:02.687Z,98442.60
2023-04-06T11:01:05.836Z,98437.33
2023-04-06T11:04:10.898Z,98443.94
2023-04-06T11:07:27.863Z,98442.55
2023-04-06T11:10:31.339Z,98440.93
2023-04-06T11:13:46.160Z,98444.89
2023-04-06T11:16:51.170Z,98438.50
2023-04-06T11:19:55.131Z,98435.23
2023-04-06T11:23:00.147Z,98434.77
2023-04-06T11:26:03.615Z,98431.27
2023-04-06T11:29:07.493Z,98433.10
2023-04-06T11:32:10.585Z,98430.99
2023-04-06T11:35:25.976Z,98431.51
2023-04-06T11:38:29.209Z,98430.02
2023-04-06T11:41:34.517Z,98429.41
2023-04-06T11:44:40.184Z,98423.69
2023-04-06T11:47:44.829Z,98424.71
2023-04-06T11:50:51.670Z,98419.33
2023-04-06T11:53:55.481Z,98415.66
2023-04-06T11:56:58.691Z,98411.46
2023-04-06T12:00:01.928Z,98413.59
2023-04-06T12:03:05.102Z,98413.83
2023-04-06T12:06:08.577Z,98410.05
2023-04-06T12:09:11.736Z,98400.95
2023-04-06T12:12:16.283Z,98404.41
2023-04-06T12:15:19.572Z,98400.39
2023-04-06T12:18:22.909Z,98400.27
2023-04-06T12:21:34.655Z,98399.41
2023-04-06T12:24:38.002Z,98398.63
2023-04-06T12:27:41.563Z,98394.88
2023-04-06T12:30:44.781Z,98391.59
2023-04-06T12:33:49.828Z,98390.84
2023-04-06T12:36:53.124Z,98388.34
2023-04-06T12:39:56.283Z,98385.12
2023-04-06T12:42:59.645Z,98382.55
2023-04-06T12:46:02.831Z,98380.86
2023-04-06T12:49:06.187Z,98381.02
2023-04-06T12:52:09.746Z,98376.16
2023-04-06T12:55:12.920Z,98374.84
2023-04-06T12:58:17.738Z,98375.39
2023-04-06T13:01:21.352Z,98373.52
2023-04-06T13:04:24.540Z,98371.13
2023-04-06T13:07:27.661Z,98366.08
2023-04-06T13:10:31.111Z,98368.20
2023-04-06T13:13:34.148Z,98370.40
2023-04-06T13:16:38.540Z,98367.04
2023-04-06T13:19:42.453Z,98368.15
2023-04-06T13:22:45.552Z,98368.49
2023-04-06T13:25:48.710Z,98364.09
2023-04-06T13:28:51.879Z,98363.70
2023-04-06T13:31:55.201Z,98363.45
2023-04-06T13:34:58.642Z,98369.08
2023-04-06T13:38:01.989Z,98368.44
2023-04-06T13:41:05.466Z,98363.76
2023-04-06T13:44:08.757Z,98363.55
2023-04-06T13:47:13.454Z,98359.62
2023-04-06T13:50:16.623Z,98360.58
2023-04-06T13:53:19.747Z,98354.84
2023-04-06T13:56:22.900Z,98347.58
2023-04-06T13:59:26.268Z,98350.10
2023-04-06T14:02:29.749Z,98352.64
2023-04-06T14:05:34.105Z,98352.96
2023-04-06T14:08:39.537Z,98350.86
2023-04-06T14:11:42.654Z,98350.53
2023-04-06T14:14:45.843Z,98338.96
2023-04-06T14:17:49.236Z,98330.52
2023-04-06T14:20:58.430Z,98328.64
2023-04-06T14:24:02.812Z,98326.18
2023-04-06T14:27:06.026Z,98328.04
2023-04-06T14:30:09.890Z,98322.09
2023-04-06T14:33:13.433Z,98322.23
2023-04-06T14:36:16.566Z,98323.57
2023-04-06T14:39:19.752Z,98327.14
2023-04-06T14:42:22.926Z,98325.05
2023-04-06T14:45:26.282Z,98324.86
2023-04-06T14:48:29.757Z,98325.89
2023-04-06T14:51:35.278Z,98326.75
2023-04-06T14:54:38.301Z,98327.35
2023-04-06T14:57:41.527Z,98326.02
2023-04-06T15:00:44.719Z,98323.42
2023-04-06T15:03:48.546Z,98324.13
2023-04-06T15:06:51.908Z,98319.62
2023-04-06T15:09:54.854Z,98316.80
2023-04-06T15:12:57.912Z,98314.84
2023-04-06T15:16:02.093Z,98313.86
2023-04-06T15:19:05.256Z,98317.75
2023-04-06T15:22:08.231Z,98317.39
2023-04-06T15:25:11.638Z,98315.91
2023-04-06T15:28:14.663Z,98318.14
2023-04-06T15:31:36.034Z,98318.73
2023-04-06T15:34:41.313Z,98317.66
2023-04-06T15:37:44.309Z,98316.08
2023-04-06T15:40:49.571Z,98320.27
2023-04-06T15:43:53.882Z,98321.67
2023-04-06T15:46:57.679Z,98319.36
2023-04-06T15:50:01.000Z,98323.98
2023-04-06T15:53:04.225Z,98320.42
2023-04-06T15:56:11.113Z,98329.85
2023-04-06T15:59:15.458Z,98330.05
2023-04-06T16:02:20.301Z,98329.98
2023-04-06T16:05:23.457Z,98331.20
2023-04-06T16:08:26.650Z,98335.83
2023-04-06T16:11:29.887Z,98337.62
2023-04-06T16:14:33.543Z,98334.28
2023-04-06T16:17:36.704Z,98341.23
2023-04-06T16:20:40.723Z,98341.51
2023-04-06T16:23:45.850Z,98342.54
2023-04-06T16:26:49.663Z,98341.92
2023-04-06T16:29:53.122Z,98343.80
2023-04-06T16:32:58.024Z,98343.24
2023-04-06T16:36:01.778Z,98349.41
2023-04-06T16:39:05.077Z,98348.84
2023-04-06T16:42:08.060Z,98350.67
2023-04-06T16:45:11.895Z,98351.96
2023-04-06T16:48:14.854Z,98357.88
2023-04-06T16:51:18.908Z,98359.23
2023-04-06T16:54:21.935Z,98361.95
2023-04-06T16:57:29.498Z,98365.84
2023-04-06T17:00:32.868Z,98365.66
2023-04-06T17:03:36.142Z,98366.05
2023-04-06T17:06:39.160Z,98364.26
2023-04-06T17:09:42.644Z,98362.45
2023-04-06T17:12:47.252Z,98359.63
2023-04-06T17:15:50.421Z,98366.94
2023-04-06T17:18:53.962Z,98369.39
2023-04-06T17:21:57.209Z,98369.61
2023-04-06T17:25:02.604Z,98370.94
2023-04-06T17:28:05.911Z,98370.48
2023-04-06T17:31:10.628Z,98366.93
2023-04-06T17:34:13.869Z,98368.20
2023-04-06T17:37:17.320Z,98370.04
2023-04-06T17:40:20.824Z,98370.32
2023-04-06T17:43:24.033Z,98374.90
2023-04-06T17:46:27.330Z,98378.02
2023-04-06T17:49:31.267Z,98378.98
2023-04-06T17:52:34.292Z,98380.64
2023-04-06T17:55:37.608Z,98383.05
2023-04-06T17:58:41.065Z,98383.70
2023-04-06T18:01:44.098Z,98382.83
2023-04-06T18:04:47.681Z,98380.82
2023-04-06T18:07:53.359Z,98382.98
2023-04-06T18:10:56.424Z,98379.71
2023-04-06T18:14:00.294Z,98378.98
2023-04-06T18:17:03.624Z,98373.92
2023-04-06T18:20:07.404Z,98374.45
2023-04-06T18:23:10.336Z,98378.48
2023-04-06T18:26:18.559Z,98373.86
2023-04-06T18:29:21.942Z,98370.84
2023-04-06T18:32:24.961Z,98367.61
2023-04-06T18:35:27.975Z,98368.01
2023-04-06T18:38:31.120Z,98364.95
2023-04-06T18:41:34.955Z,98366.08
2023-04-06T18:44:38.238Z,98359.20
2023-04-06T18:47:41.298Z,98360.02
2023-04-06T18:50:54.434Z,98359.83
2023-04-06T18:53:58.246Z,98359.30
2023-04-06T18:57:04.237Z,98358.49
2023-04-06T19:00:08.431Z,98358.49
2023-04-06T19:03:11.554Z,98357.41
2023-04-06T19:06:14.659Z,98354.45
2023-04-06T19:09:17.630Z,98356.48
2023-04-06T19:12:20.628Z,98356.89
2023-04-06T19:15:23.700Z,98354.83
2023-04-06T19:18:27.106Z,98356.86
2023-04-06T19:21:30.094Z,98351.66
2023-04-06T19:24:33.284Z,98348.42
2023-04-06T19:27:36.481Z,98346.19
2023-04-06T19:30:41.267Z,98339.69
2023-04-06T19:33:45.397Z,98336.98
2023-04-06T19:36:48.425Z,98332.85
2023-04-06T19:39:51.418Z,98325.28
2023-04-06T19:42:54.424Z,98326.48
2023-04-06T19:45:57.530Z,98320.41
2023-04-06T19:49:01.476Z,98320.02
2023-04-06T19:52:05.797Z,98317.50
2023-04-06T19:55:13.367Z,98319.20
2023-04-06T19:58:16.736Z,98320.55
2023-04-06T20:01:19.805Z,98322.80
2023-04-06T20:04:23.941Z,98319.94
2023-04-06T20:07:27.144Z,98318.17
2023-04-06T20:10:30.514Z,98318.78
2023-04-06T20:13:34.472Z,98317.82
2023-04-06T20:16:37.823Z,98315.00
2023-04-06T20:19:40.924Z,98314.77
2023-04-06T20:22:43.935Z,98313.02
2023-04-06T20:25:47.162Z,98312.11
2023-04-06T20:28:50.278Z,98310.84
2023-04-06T20:31:53.289Z,98311.56
2023-04-06T20:34:56.691Z,98307.53
2023-04-06T20:37:59.735Z,98309.27
2023-04-06T20:41:02.824Z,98311.11
2023-04-06T20:44:06.291Z,98306.81
2023-04-06T20:47:09.358Z,98301.92
2023-04-06T20:50:12.530Z,98298.11
2023-04-06T20:53:16.487Z,98298.29
2023-04-06T20:56:21.869Z,98296.98
2023-04-06T20:59:26.574Z,98291.52
2023-04-06T21:02:29.692Z,98290.96
2023-04-06T21:05:32.892Z,98289.55
2023-04-06T21:08:36.369Z,98288.38
2023-04-06T21:11:39.343Z,98287.70
2023-04-06T21:14:42.507Z,98285.73
2023-04-06T21:17:45.559Z,98280.08
2023-04-06T21:20:48.729Z,98278.05
2023-04-06T21:23:53.057Z,98275.88
2023-04-06T21:26:56.052Z,98270.77
2023-04-06T21:29:59.304Z,98271.33
2023-04-06T21:33:03.684Z,98262.86
2023-04-06T21:36:07.730Z,98266.10
2023-04-06T21:39:10.906Z,98264.20
2023-04-06T21:42:13.989Z,98264.30
2023-04-06T21:45:17.073Z,98264.29
2023-04-06T21:48:20.490Z,98260.46
2023-04-06T21:51:24.310Z,98261.81
2023-04-06T21:54:32.870Z,98255.59
2023-04-06T21:57:36.376Z,98255.63
2023-04-06T22:00:40.528Z,98251.19
2023-04-06T22:03:44.227Z,98246.20
2023-04-06T22:06:47.974Z,98243.91
2023-04-06T22:09:53.709Z,98238.79
2023-04-06T22:12:57.305Z,98234.49
2023-04-06T22:16:00.457Z,98232.27
2023-04-06T22:19:03.447Z,98229.55
2023-04-06T22:22:06.491Z,98226.73
2023-04-06T22:25:09.615Z,98228.76
2023-04-06T22:28:12.950Z,98223.25
2023-04-06T22:31:15.923Z,98228.08
2023-04-06T22:34:19.194Z,98224.56
2023-04-06T22:37:22.505Z,98224.12
2023-04-06T22:40:25.510Z,98227.39
2023-04-06T22:43:28.629Z,98222.52
2023-04-06T22:46:31.624Z,98219.02
2023-04-06T22:49:34.763Z,98217.73
2023-04-06T22:52:37.836Z,98214.48
2023-04-06T22:55:41.325Z,98205.64
2023-04-06T22:58:44.302Z,98207.69
2023-04-06T23:01:47.399Z,98209.90
2023-04-06T23:04:50.417Z,98202.48
2023-04-06T23:07:54.040Z,98199.23
2023-04-06T23:10:56.994Z,98200.88
2023-04-06T23:13:59.971Z,98197.77
2023-04-06T23:17:03.494Z,98194.39
2023-04-06T23:20:07.211Z,98192.83
2023-04-06T23:23:10.553Z,98194.23
2023-04-06T23:26:13.769Z,98192.50
2023-04-06T23:29:16.760Z,98193.60
2023-04-06T23:32:19.814Z,98189.63
2023-04-06T23:35:22.830Z,98188.47
2023-04-06T23:38:25.941Z,98185.59
2023-04-06T23:41:29.140Z,98183.20
2023-04-06T23:44:32.229Z,98176.15
2023-04-06T23:47:35.310Z,98174.03
2023-04-06T23:50:38.761Z,98170.55
2023-04-06T23:53:41.929Z,98167.42
2023-04-06T23:56:44.917Z,98164.59
2023-04-06T23:59:48.070Z,98158.36
